Kearney, NE (68845)

08:24 AM CST del 23 novembre 2014 (GMT -0600)
Regency | Change Station
CLOSE
Current Station
Stazione meteo personale
Location: Kearney, NE
Altitudine: 2224 ft
Stazioni meteo nelle vicinanze

Alt. 2224 ft 40.72 °N, 99.08 °W | Updated 6 seconds ago

Coperto
Coperto
41.2 °F
Sembra 33 °F
N
15.3
Vento Variabile Vento da NNO
Gusts 23.0 mph

Oggi
Massima -- | Minima -- °F
--% Possibilità di precip.
Ieri
Massima -- | Minima -- °F
Precip. -- in
7:33 AM 5:13 PM
Luna nuova, 1% visible
Pressione 29.60 in
Visibilità 10.0 miglia
Nuvole Coperto 5500 ft
Raffreddamento del vento 33 °F
Punto di rugiada 35 °F
Umidità 79%
Piovosità 0.00 in
Spessore del manto nevoso Non disponibile.
Raggi UV 0 fuori da 12
Polline .10 fuori da 12
Qualità dell'aria Non disponibile.
Flu Activity Non disponibile.
METAR KEAR 231415Z 31019G27KT 10SM OVC055 06/01 A2960 RMK AO1

More Conditions Fewer Conditions

Pressione 29.60 in
Visibilità 10.0 miglia
Nuvole Coperto 5500 ft
Raffreddamento del vento 33 °F
Punto di rugiada 35 °F
Umidità 79%
Piovosità 0.00 in
Spessore del manto nevoso Non disponibile.
Raggi UV 0 fuori da 12
Polline .10 fuori da 12
Qualità dell'aria Non disponibile.
Flu Activity Non disponibile.
METAR KEAR 231415Z 31019G27KT 10SM OVC055 06/01 A2960 RMK AO1

More Conditions Fewer Conditions

10-Day Weather Forecast

Almanac

Astronomia

Nov. 23, 2014 Alba Tramonto
Ora attuale
Crepuscolo civile
Crepuscolo nautico
Crepuscolo astronomico
Luna
Estensione della luce visibile
Lunghezza del giorno
Tomorrow will be .
, % of the Moon is Illuminated

Gli estremi di oggi

State Highs State Lows

Community

WunderPhotos

Upload Photos

1,773,073 foto caricate!

WunderBlogs® & News

Nearby

Qualità dell'aria

  Qualità dell'aria Indice AQ Inquinante
Not available.

Profondità neve

Stazione Profondità Altitudine

Attività sismica

Città  Distanza Mag. Data & Ora
Minimo Magnitudo Mostrato è 2.5.

Temperature delle acque costiere

Località Temperatura

Stazioni meteo nelle vicinanze